createdAt,value
2018-05-04T00:01:48.432Z,6.10
2018-05-04T00:04:51.837Z,6.00
2018-05-04T00:07:55.237Z,6.00
2018-05-04T00:10:58.627Z,6.00
2018-05-04T00:14:02.033Z,6.00
2018-05-04T00:17:05.324Z,6.10
2018-05-04T00:20:08.830Z,6.00
2018-05-04T00:23:12.129Z,6.00
2018-05-04T00:26:15.436Z,6.00
2018-05-04T00:29:18.831Z,5.90
2018-05-04T00:32:22.229Z,5.90
2018-05-04T00:35:25.620Z,5.90
2018-05-04T00:38:29.026Z,5.80
2018-05-04T00:41:32.313Z,5.80
2018-05-04T00:44:35.632Z,5.90
2018-05-04T00:47:38.928Z,5.80
2018-05-04T00:50:42.331Z,5.70
2018-05-04T00:54:03.424Z,5.60
2018-05-04T00:57:06.828Z,5.50
2018-05-04T01:00:10.242Z,5.40
2018-05-04T01:03:13.541Z,5.40
2018-05-04T01:06:16.842Z,5.40
2018-05-04T01:09:20.237Z,5.40
2018-05-04T01:12:23.543Z,5.40
2018-05-04T01:15:26.923Z,5.40
2018-05-04T01:18:30.217Z,5.30
2018-05-04T01:21:33.627Z,5.30
2018-05-04T01:24:36.948Z,5.20
2018-05-04T01:27:40.245Z,5.20
2018-05-04T01:30:45.058Z,5.30
2018-05-04T01:33:48.457Z,5.30
2018-05-04T01:36:51.760Z,5.30
2018-05-04T01:39:55.060Z,5.30
2018-05-04T01:42:58.358Z,5.20
2018-05-04T01:46:01.670Z,5.10
2018-05-04T01:49:04.968Z,5.00
2018-05-04T01:52:08.285Z,5.00
2018-05-04T01:55:12.351Z,5.00
2018-05-04T01:58:15.752Z,5.00
2018-05-04T02:01:19.056Z,5.00
2018-05-04T02:04:22.451Z,5.00
2018-05-04T02:07:25.853Z,5.00
2018-05-04T02:10:29.149Z,5.00
2018-05-04T02:13:32.550Z,4.90
2018-05-04T02:16:35.956Z,4.90
2018-05-04T02:19:39.256Z,4.80
2018-05-04T02:22:42.558Z,4.70
2018-05-04T02:25:45.954Z,4.60
2018-05-04T02:28:49.339Z,4.60
2018-05-04T02:31:52.742Z,4.50
2018-05-04T02:34:56.149Z,4.50
2018-05-04T02:37:59.553Z,4.50
2018-05-04T02:41:02.945Z,4.50
2018-05-04T02:44:06.337Z,4.50
2018-05-04T02:47:09.747Z,4.60
2018-05-04T02:50:13.054Z,4.60
2018-05-04T02:53:16.365Z,4.50
2018-05-04T02:56:19.747Z,4.50
2018-05-04T02:59:23.063Z,4.50
2018-05-04T03:02:27.219Z,4.40
2018-05-04T03:05:30.536Z,4.40
2018-05-04T03:08:33.846Z,4.40
2018-05-04T03:11:37.158Z,4.40
2018-05-04T03:14:40.504Z,4.40
2018-05-04T03:17:44.669Z,4.40
2018-05-04T03:20:47.969Z,4.40
2018-05-04T03:23:51.379Z,4.40
2018-05-04T03:26:54.757Z,4.40
2018-05-04T03:29:58.076Z,4.40
2018-05-04T03:33:01.462Z,4.40
2018-05-04T03:36:04.780Z,4.40
2018-05-04T03:39:08.153Z,4.40
2018-05-04T03:42:12.254Z,4.40
2018-05-04T03:45:15.598Z,4.40
2018-05-04T03:48:19.663Z,4.40
2018-05-04T03:51:22.986Z,4.40
2018-05-04T03:54:26.381Z,4.40
2018-05-04T03:57:47.580Z,4.40
2018-05-04T04:01:08.851Z,4.40
2018-05-04T04:04:13.442Z,4.50
2018-05-04T04:07:16.740Z,4.60
2018-05-04T04:10:20.055Z,4.60
2018-05-04T04:13:23.436Z,4.70
2018-05-04T04:16:26.754Z,4.80
2018-05-04T04:19:30.052Z,4.90
2018-05-04T04:22:33.450Z,4.90
2018-05-04T04:25:36.760Z,5.00
2018-05-04T04:28:40.064Z,5.00
2018-05-04T04:31:43.437Z,5.10
2018-05-04T04:34:46.750Z,5.10
2018-05-04T04:37:50.066Z,5.30
2018-05-04T04:40:53.391Z,5.40
2018-05-04T04:43:56.717Z,5.60
2018-05-04T04:47:00.124Z,5.60
2018-05-04T04:50:03.428Z,5.60
2018-05-04T04:53:06.817Z,5.70
2018-05-04T04:56:10.232Z,5.70
2018-05-04T04:59:13.542Z,5.80
2018-05-04T05:02:18.419Z,6.10
2018-05-04T05:05:21.736Z,6.10
2018-05-04T05:08:25.060Z,6.30
2018-05-04T05:11:28.363Z,6.40
2018-05-04T05:14:31.659Z,6.60
2018-05-04T05:17:34.952Z,6.80
2018-05-04T05:20:38.258Z,6.90
2018-05-04T05:23:41.557Z,7.00
2018-05-04T05:26:44.868Z,7.00
2018-05-04T05:29:48.177Z,7.10
2018-05-04T05:32:52.241Z,7.50
2018-05-04T05:35:55.693Z,7.40
2018-05-04T05:38:59.756Z,7.90
2018-05-04T05:42:03.063Z,8.00
2018-05-04T05:45:06.434Z,8.20
2018-05-04T05:48:09.745Z,8.40
2018-05-04T05:51:13.158Z,8.60
2018-05-04T05:54:16.524Z,8.90
2018-05-04T05:57:19.840Z,9.10
2018-05-04T06:00:23.185Z,9.40
2018-05-04T06:03:27.275Z,9.60
2018-05-04T06:06:30.568Z,9.60
2018-05-04T06:09:33.872Z,9.60
2018-05-04T06:12:37.199Z,9.70
2018-05-04T06:15:40.528Z,9.80
2018-05-04T06:18:43.874Z,9.80
2018-05-04T06:21:47.258Z,9.90
2018-05-04T06:24:50.561Z,9.90
2018-05-04T06:27:53.960Z,10.10
2018-05-04T06:30:57.423Z,10.10
2018-05-04T06:34:00.720Z,9.90
2018-05-04T06:37:04.123Z,9.90
2018-05-04T06:40:07.486Z,10.20
2018-05-04T06:43:11.587Z,10.50
2018-05-04T06:46:14.897Z,10.50
2018-05-04T06:49:18.291Z,10.40
2018-05-04T06:52:21.616Z,10.50
2018-05-04T06:55:25.693Z,10.60
2018-05-04T06:58:29.047Z,10.60
2018-05-04T07:01:32.360Z,10.60
2018-05-04T07:04:35.691Z,10.60
2018-05-04T07:07:39.090Z,10.60
2018-05-04T07:10:42.489Z,10.50
2018-05-04T07:13:45.800Z,10.40
2018-05-04T07:16:49.139Z,10.30
2018-05-04T07:19:52.455Z,10.20
2018-05-04T07:22:55.798Z,10.00
2018-05-04T07:25:59.180Z,9.80
2018-05-04T07:29:02.577Z,9.90
2018-05-04T07:32:05.984Z,10.10
2018-05-04T07:35:09.398Z,10.30
2018-05-04T07:38:12.706Z,10.50
2018-05-04T07:41:16.012Z,10.80
2018-05-04T07:44:20.089Z,11.50
2018-05-04T07:47:23.490Z,11.40
2018-05-04T07:50:26.814Z,11.90
2018-05-04T07:53:30.145Z,11.70
2018-05-04T07:56:37.585Z,12.00
2018-05-04T07:59:40.918Z,12.40
2018-05-04T08:02:45.099Z,11.90
2018-05-04T08:05:48.497Z,11.90
2018-05-04T08:08:51.854Z,12.00
2018-05-04T08:11:55.161Z,12.10
2018-05-04T08:14:58.486Z,12.20
2018-05-04T08:18:01.820Z,11.60
2018-05-04T08:21:05.259Z,11.70
2018-05-04T08:24:08.573Z,11.80
2018-05-04T08:27:11.984Z,12.10
2018-05-04T08:30:15.295Z,12.40
2018-05-04T08:33:19.314Z,12.60
2018-05-04T08:36:22.761Z,12.80
2018-05-04T08:39:26.098Z,12.70
2018-05-04T08:42:29.514Z,13.20
2018-05-04T08:45:32.834Z,13.60
2018-05-04T08:48:36.199Z,13.70
2018-05-04T08:51:39.516Z,13.90
2018-05-04T08:54:42.817Z,13.50
2018-05-04T08:57:46.120Z,13.20
2018-05-04T09:00:49.489Z,13.10
2018-05-04T09:03:52.888Z,13.20
2018-05-04T09:06:56.289Z,13.20
2018-05-04T09:09:59.686Z,13.40
2018-05-04T09:13:03.097Z,13.80
2018-05-04T09:16:06.502Z,14.10
2018-05-04T09:19:09.922Z,14.10
2018-05-04T09:22:14.059Z,14.60
2018-05-04T09:25:17.472Z,14.50
2018-05-04T09:28:20.750Z,14.60
2018-05-04T09:31:24.840Z,15.10
2018-05-04T09:34:28.219Z,15.10
2018-05-04T09:37:31.683Z,15.00
2018-05-04T09:40:35.022Z,14.90
2018-05-04T09:43:38.447Z,15.00
2018-05-04T09:46:41.885Z,14.80
2018-05-04T09:49:45.222Z,14.30
2018-05-04T09:52:48.653Z,14.60
2018-05-04T09:55:52.108Z,14.70
2018-05-04T09:58:55.410Z,14.40
2018-05-04T10:01:58.882Z,14.00
2018-05-04T10:05:02.321Z,14.30
2018-05-04T10:08:05.725Z,14.40
2018-05-04T10:11:09.135Z,14.00
2018-05-04T10:14:12.447Z,14.20
2018-05-04T10:17:15.747Z,14.10
2018-05-04T10:20:19.116Z,13.80
2018-05-04T10:23:22.628Z,13.70
2018-05-04T10:26:26.034Z,14.00
2018-05-04T10:29:29.427Z,14.10
2018-05-04T10:32:32.756Z,14.20
2018-05-04T10:35:36.830Z,14.70
2018-05-04T10:38:40.273Z,14.70
2018-05-04T10:41:43.636Z,15.10
2018-05-04T10:44:46.943Z,15.30
2018-05-04T10:47:50.265Z,15.10
2018-05-04T10:50:53.609Z,15.10
2018-05-04T10:53:56.912Z,15.40
2018-05-04T10:57:00.220Z,15.50
2018-05-04T11:00:03.618Z,15.90
2018-05-04T11:03:06.969Z,16.20
2018-05-04T11:06:11.051Z,16.30
2018-05-04T11:09:14.399Z,16.30
2018-05-04T11:12:17.741Z,16.30
2018-05-04T11:15:21.068Z,16.00
2018-05-04T11:18:24.496Z,15.90
2018-05-04T11:21:27.869Z,16.10
2018-05-04T11:24:32.693Z,16.20
2018-05-04T11:27:36.041Z,16.20
2018-05-04T11:30:39.463Z,16.20
2018-05-04T11:33:42.769Z,16.20
2018-05-04T11:36:46.164Z,16.20
2018-05-04T11:39:49.582Z,16.50
2018-05-04T11:42:54.409Z,16.10
2018-05-04T11:45:57.722Z,16.10
2018-05-04T11:49:01.024Z,15.90
2018-05-04T11:52:04.440Z,16.00
2018-05-04T11:55:08.544Z,15.90
2018-05-04T11:58:11.848Z,15.90
2018-05-04T12:01:16.047Z,16.60
2018-05-04T12:04:19.454Z,16.60
2018-05-04T12:07:23.561Z,17.00
2018-05-04T12:10:26.960Z,17.20
2018-05-04T12:13:30.373Z,17.30
2018-05-04T12:16:33.738Z,17.50
2018-05-04T12:19:37.105Z,17.70
2018-05-04T12:22:40.419Z,17.70
2018-05-04T12:25:43.728Z,17.60
2018-05-04T12:28:47.051Z,17.30
2018-05-04T12:31:50.360Z,17.40
2018-05-04T12:34:55.330Z,17.30
2018-05-04T12:37:58.641Z,17.30
2018-05-04T12:41:01.956Z,17.30
2018-05-04T12:44:05.262Z,17.60
2018-05-04T12:47:08.592Z,17.80
2018-05-04T12:50:11.898Z,17.50
2018-05-04T12:53:15.215Z,17.10
2018-05-04T12:56:19.291Z,17.60
2018-05-04T12:59:22.600Z,17.60
2018-05-04T13:02:26.696Z,17.70
2018-05-04T13:05:30.094Z,17.70
2018-05-04T13:08:33.491Z,17.80
2018-05-04T13:11:36.804Z,18.00
2018-05-04T13:14:40.122Z,17.70
2018-05-04T13:17:44.213Z,17.10
2018-05-04T13:20:47.634Z,17.10
2018-05-04T13:23:51.720Z,16.90
2018-05-04T13:26:55.126Z,16.80
2018-05-04T13:29:58.528Z,16.80
2018-05-04T13:33:01.929Z,16.90
2018-05-04T13:36:05.317Z,17.20
2018-05-04T13:39:08.651Z,17.70
2018-05-04T13:42:12.020Z,17.80
2018-05-04T13:45:15.427Z,18.10
2018-05-04T13:48:18.761Z,18.30
2018-05-04T13:51:22.875Z,18.30
2018-05-04T13:54:26.183Z,18.30
2018-05-04T13:57:30.277Z,17.40
2018-05-04T14:00:33.654Z,17.40
2018-05-04T14:03:36.971Z,17.30
2018-05-04T14:06:40.296Z,17.80
2018-05-04T14:09:44.477Z,18.10
2018-05-04T14:12:47.999Z,18.10
2018-05-04T14:15:51.263Z,18.30
2018-05-04T14:18:54.578Z,18.40
2018-05-04T14:21:58.793Z,18.50
2018-05-04T14:25:02.122Z,18.50
2018-05-04T14:28:06.219Z,18.20
2018-05-04T14:31:09.635Z,18.20
2018-05-04T14:34:13.710Z,18.10
2018-05-04T14:37:17.108Z,18.10
2018-05-04T14:40:20.407Z,18.20
2018-05-04T14:43:23.818Z,18.40
2018-05-04T14:46:27.142Z,18.30
2018-05-04T14:49:31.258Z,18.40
2018-05-04T14:52:35.333Z,18.70
2018-05-04T14:55:38.652Z,18.70
2018-05-04T14:58:42.074Z,18.10
2018-05-04T15:01:45.424Z,18.00
2018-05-04T15:04:48.738Z,17.50
2018-05-04T15:07:52.141Z,17.00
2018-05-04T15:10:55.491Z,16.60
2018-05-04T15:13:58.825Z,16.20
2018-05-04T15:17:02.152Z,16.00
2018-05-04T15:20:06.229Z,15.40
2018-05-04T15:23:09.650Z,15.30
2018-05-04T15:26:12.970Z,15.60
2018-05-04T15:29:16.364Z,16.40
2018-05-04T15:32:19.701Z,17.50
2018-05-04T15:35:23.059Z,18.20
2018-05-04T15:38:26.369Z,18.40
2018-05-04T15:41:29.694Z,18.30
2018-05-04T15:44:33.013Z,18.00
2018-05-04T15:47:36.349Z,18.00
2018-05-04T15:50:45.229Z,18.60
2018-05-04T15:53:49.381Z,19.50
2018-05-04T15:56:52.697Z,19.50
2018-05-04T15:59:56.854Z,20.00
2018-05-04T16:03:00.298Z,20.00
2018-05-04T16:06:03.635Z,19.80
2018-05-04T16:09:06.934Z,19.40
2018-05-04T16:12:11.109Z,19.40
2018-05-04T16:15:14.434Z,19.40
2018-05-04T16:18:18.529Z,20.80
2018-05-04T16:21:21.848Z,20.70
2018-05-04T16:24:26.074Z,20.90
2018-05-04T16:27:30.167Z,20.50
2018-05-04T16:30:33.486Z,20.50
2018-05-04T16:33:36.828Z,21.00
2018-05-04T16:36:40.147Z,21.00
2018-05-04T16:39:43.448Z,21.30
2018-05-04T16:42:46.863Z,21.40
2018-05-04T16:45:50.257Z,21.20
2018-05-04T16:48:59.030Z,21.30
2018-05-04T16:52:03.202Z,20.90
2018-05-04T16:55:06.575Z,20.90
2018-05-04T16:58:09.948Z,21.50
2018-05-04T17:01:13.324Z,21.70
2018-05-04T17:04:17.684Z,21.40
2018-05-04T17:07:21.054Z,21.30
2018-05-04T17:10:25.307Z,21.10
2018-05-04T17:13:28.648Z,21.10
2018-05-04T17:16:31.995Z,21.50
2018-05-04T17:19:35.324Z,22.10
2018-05-04T17:22:38.647Z,21.80
2018-05-04T17:25:41.967Z,21.40
2018-05-04T17:28:46.069Z,19.90
2018-05-04T17:31:49.380Z,19.90
2018-05-04T17:34:53.461Z,18.30
2018-05-04T17:37:56.863Z,18.20
2018-05-04T17:41:00.193Z,17.50
2018-05-04T17:44:04.377Z,16.20
2018-05-04T17:47:07.779Z,16.20
2018-05-04T17:50:11.198Z,15.80
2018-05-04T17:53:15.326Z,15.00
2018-05-04T17:56:18.689Z,15.00
2018-05-04T17:59:21.993Z,14.80
2018-05-04T18:02:25.394Z,14.60
2018-05-04T18:05:28.801Z,14.40
2018-05-04T18:08:32.199Z,14.20
2018-05-04T18:11:35.594Z,14.10
2018-05-04T18:14:39.004Z,14.00
2018-05-04T18:17:43.115Z,13.90
2018-05-04T18:20:46.443Z,13.90
2018-05-04T18:23:50.537Z,13.60
2018-05-04T18:26:53.858Z,13.60
2018-05-04T18:29:57.952Z,13.50
2018-05-04T18:33:01.356Z,13.40
2018-05-04T18:36:04.629Z,13.30
2018-05-04T18:39:07.944Z,13.20
2018-05-04T18:42:11.287Z,13.10
2018-05-04T18:45:14.604Z,12.90
2018-05-04T18:48:18.138Z,12.80
2018-05-04T18:51:22.203Z,12.60
2018-05-04T18:54:25.558Z,12.50
2018-05-04T18:57:28.909Z,12.40
2018-05-04T19:00:32.228Z,12.30
2018-05-04T19:03:35.572Z,12.20
2018-05-04T19:06:38.890Z,12.10
2018-05-04T19:09:42.965Z,11.90
2018-05-04T19:12:46.278Z,11.90
2018-05-04T19:15:49.611Z,11.80
2018-05-04T19:18:52.956Z,11.70
2018-05-04T19:21:56.354Z,11.60
2018-05-04T19:24:59.657Z,11.40
2018-05-04T19:28:02.986Z,11.30
2018-05-04T19:31:06.359Z,11.30
2018-05-04T19:34:09.732Z,11.10
2018-05-04T19:37:13.057Z,11.00
2018-05-04T19:40:16.467Z,10.90
2018-05-04T19:43:19.853Z,10.80
2018-05-04T19:46:23.179Z,10.70
2018-05-04T19:49:27.253Z,10.50
2018-05-04T19:52:30.593Z,10.40
2018-05-04T19:55:34.692Z,10.30
2018-05-04T19:58:38.175Z,10.30
2018-05-04T20:01:41.502Z,10.20
2018-05-04T20:04:44.889Z,10.10
2018-05-04T20:07:48.293Z,10.10
2018-05-04T20:10:51.644Z,10.00
2018-05-04T20:13:55.004Z,9.90
2018-05-04T20:16:59.239Z,9.90
2018-05-04T20:20:03.330Z,9.90
2018-05-04T20:23:06.642Z,9.90
2018-05-04T20:26:10.737Z,9.90
2018-05-04T20:29:14.052Z,9.90
2018-05-04T20:32:17.427Z,9.90
2018-05-04T20:35:20.828Z,9.90
2018-05-04T20:38:24.229Z,9.90
2018-05-04T20:41:27.572Z,9.90
2018-05-04T20:44:30.892Z,9.80
2018-05-04T20:47:34.235Z,9.80
2018-05-04T20:50:37.578Z,9.80
2018-05-04T20:53:40.913Z,9.70
2018-05-04T20:56:44.235Z,9.70
2018-05-04T20:59:47.611Z,9.70
2018-05-04T21:02:51.651Z,9.70
2018-05-04T21:05:56.474Z,9.60
2018-05-04T21:08:59.789Z,9.60
2018-05-04T21:12:03.857Z,9.50
2018-05-04T21:15:07.158Z,9.50
2018-05-04T21:18:10.568Z,9.50
2018-05-04T21:21:13.896Z,9.40
2018-05-04T21:24:17.225Z,9.40
2018-05-04T21:27:20.583Z,9.50
2018-05-04T21:30:24.700Z,9.30
2018-05-04T21:33:28.014Z,9.20
2018-05-04T21:36:32.103Z,9.10
2018-05-04T21:39:35.440Z,9.10
2018-05-04T21:42:39.500Z,9.10
2018-05-04T21:45:42.811Z,9.10
2018-05-04T21:48:46.220Z,9.00
2018-05-04T21:51:50.369Z,8.90
2018-05-04T21:54:53.641Z,8.90
2018-05-04T21:57:57.739Z,8.90
2018-05-04T22:01:01.037Z,8.80
2018-05-04T22:04:04.333Z,8.80
2018-05-04T22:07:07.728Z,8.80
2018-05-04T22:10:11.051Z,8.90
2018-05-04T22:13:14.390Z,8.80
2018-05-04T22:16:17.712Z,8.70
2018-05-04T22:19:21.014Z,8.60
2018-05-04T22:22:24.346Z,8.60
2018-05-04T22:25:27.656Z,8.60
2018-05-04T22:28:31.875Z,8.60
2018-05-04T22:31:35.179Z,8.50
2018-05-04T22:34:39.271Z,8.50
2018-05-04T22:37:42.649Z,8.50
2018-05-04T22:40:46.078Z,8.40
2018-05-04T22:43:49.427Z,8.30
2018-05-04T22:46:52.746Z,8.30
2018-05-04T22:49:56.079Z,8.20
2018-05-04T22:52:59.466Z,8.20
2018-05-04T22:56:02.869Z,8.20
2018-05-04T22:59:06.274Z,8.10
2018-05-04T23:02:09.703Z,8.10
2018-05-04T23:05:13.022Z,8.10
2018-05-04T23:08:16.337Z,8.10
2018-05-04T23:11:19.978Z,8.00
2018-05-04T23:14:23.408Z,7.90
2018-05-04T23:17:26.808Z,7.80
2018-05-04T23:20:30.131Z,7.80
2018-05-04T23:23:33.440Z,7.80
2018-05-04T23:26:36.752Z,7.70
2018-05-04T23:29:40.070Z,7.70
2018-05-04T23:32:43.399Z,7.70
2018-05-04T23:35:46.712Z,7.70
2018-05-04T23:38:50.026Z,7.70
2018-05-04T23:41:53.346Z,7.60
2018-05-04T23:44:56.656Z,7.60
2018-05-04T23:47:59.972Z,7.50
2018-05-04T23:51:04.041Z,7.50
2018-05-04T23:54:07.365Z,7.40
2018-05-04T23:57:10.676Z,7.40
